Time,TemperatureF,DewpointF,PressureIn,WindDirection,WindDirectionDegrees,WindSpeedMPH,WindSpeedGustMPH,Humidity,HourlyPrecipIn,Conditions,Clouds,dailyrainin,SoftwareType,DateUTC
2013-02-14 00:00:00,35.6,30.0,29.66,WSW,248,0.0,0.0,80,0.00,CLR,CLR,0.00,WeatherDisplay:10.37,2013-02-14 05:00:00,
2013-02-14 00:01:00,35.6,30.0,29.66,WSW,248,0.0,0.0,80,0.00,CLR,CLR,0.00,WeatherDisplay:10.37,2013-02-14 05:01:00,
2013-02-14 00:06:00,36.0,30.1,29.66,NW,315,0.0,0.0,79,0.00,CLR,CLR,0.00,WeatherDisplay:10.37,2013-02-14 05:06:00,
2013-02-14 00:11:00,35.8,29.6,29.66,North,0,0.0,0.0,78,0.00,CLR,CLR,0.00,WeatherDisplay:10.37,2013-02-14 05:11:00,
2013-02-14 00:16:00,36.1,29.9,29.66,North,0,1.3,1.3,78,0.00,CLR,CLR,0.00,WeatherDisplay:10.37,2013-02-14 05:16:00,
2013-02-14 00:21:00,36.3,30.1,29.66,NNW,338,0.0,0.0,78,0.00,CLR,CLR,0.00,WeatherDisplay:10.37,2013-02-14 05:21:00,
2013-02-14 00:26:00,36.3,29.8,29.67,North,0,0.0,0.0,77,0.00,CLR,CLR,0.00,WeatherDisplay:10.37,2013-02-14 05:26:00,
2013-02-14 00:31:00,36.0,29.8,29.67,North,0,0.0,0.0,78,0.00,CLR,CLR,0.00,WeatherDisplay:10.37,2013-02-14 05:31:00,
2013-02-14 00:37:00,35.6,29.4,29.68,North,0,0.0,0.0,78,0.00,CLR,CLR,0.00,WeatherDisplay:10.37,2013-02-14 05:37:00,
2013-02-14 00:42:00,35.4,29.2,29.68,North,0,0.0,0.0,78,0.00,CLR,CLR,0.00,WeatherDisplay:10.37,2013-02-14 05:42:00,
2013-02-14 00:47:00,35.2,29.4,29.68,North,0,0.0,0.0,79,0.00,CLR,CLR,0.00,WeatherDisplay:10.37,2013-02-14 05:47:00,
2013-02-14 00:52:00,35.1,29.2,29.68,North,0,0.0,0.0,79,0.00,CLR,CLR,0.00,WeatherDisplay:10.37,2013-02-14 05:52:00,
2013-02-14 00:57:00,34.5,28.7,29.68,North,0,0.0,0.0,79,0.00,CLR,CLR,0.00,WeatherDisplay:10.37,2013-02-14 05:57:00,
2013-02-14 01:02:00,34.5,28.7,29.68,North,0,0.0,0.0,79,0.00,CLR,CLR,0.00,WeatherDisplay:10.37,2013-02-14 06:02:00,
2013-02-14 01:07:00,34.5,29.0,29.69,North,0,0.0,0.0,80,0.00,CLR,CLR,0.00,WeatherDisplay:10.37,2013-02-14 06:07:00,
2013-02-14 01:12:00,34.7,29.2,29.70,North,0,0.0,0.0,80,0.00,CLR,CLR,0.00,WeatherDisplay:10.37,2013-02-14 06:12:00,
2013-02-14 01:17:00,34.9,29.3,29.70,NE,45,0.0,0.0,80,0.00,CLR,CLR,0.00,WeatherDisplay:10.37,2013-02-14 06:17:00,
2013-02-14 01:22:00,34.5,29.0,29.70,ENE,68,0.0,0.0,80,0.00,CLR,CLR,0.00,WeatherDisplay:10.37,2013-02-14 06:22:00,
2013-02-14 01:27:00,34.5,29.3,29.70,ENE,68,0.0,0.0,81,0.00,CLR,CLR,0.00,WeatherDisplay:10.37,2013-02-14 06:27:00,
2013-02-14 01:32:00,34.5,29.3,29.70,ENE,68,0.0,0.0,81,0.00,CLR,CLR,0.00,WeatherDisplay:10.37,2013-02-14 06:32:00,
2013-02-14 01:37:00,35.2,29.7,29.70,NE,45,0.0,0.0,80,0.00,CLR,CLR,0.00,WeatherDisplay:10.37,2013-02-14 06:37:00,
2013-02-14 01:42:00,35.2,29.7,29.70,NE,45,0.0,0.0,80,0.00,CLR,CLR,0.00,WeatherDisplay:10.37,2013-02-14 06:42:00,
2013-02-14 01:47:00,34.9,29.0,29.70,North,0,0.0,0.0,79,0.00,CLR,CLR,0.00,WeatherDisplay:10.37,2013-02-14 06:47:00,
2013-02-14 01:52:00,35.2,29.7,29.70,NNE,22,0.0,0.0,80,0.00,CLR,CLR,0.00,WeatherDisplay:10.37,2013-02-14 06:52:00,
2013-02-14 01:57:00,34.9,29.0,29.70,NNE,22,0.0,0.0,79,0.00,CLR,CLR,0.00,WeatherDisplay:10.37,2013-02-14 06:57:00,
2013-02-14 02:02:00,34.5,28.7,29.70,NNE,22,0.0,0.0,79,0.00,CLR,CLR,0.00,WeatherDisplay:10.37,2013-02-14 07:02:00,
2013-02-14 02:07:00,34.3,28.5,29.70,NNE,22,0.0,0.0,79,0.00,CLR,CLR,0.00,WeatherDisplay:10.37,2013-02-14 07:07:00,
2013-02-14 02:12:00,34.2,28.3,29.70,NNE,22,0.0,0.0,79,0.00,CLR,CLR,0.00,WeatherDisplay:10.37,2013-02-14 07:12:00,
2013-02-14 02:18:00,34.0,28.2,29.70,NNE,22,0.0,0.0,79,0.00,CLR,CLR,0.00,WeatherDisplay:10.37,2013-02-14 07:18:00,
2013-02-14 02:23:00,34.0,27.8,29.71,North,0,0.0,0.0,78,0.00,CLR,CLR,0.00,WeatherDisplay:10.37,2013-02-14 07:23:00,
2013-02-14 02:28:00,34.0,27.8,29.70,North,0,0.0,0.0,78,0.00,CLR,CLR,0.00,WeatherDisplay:10.37,2013-02-14 07:28:00,
2013-02-14 02:33:00,34.0,27.8,29.70,North,0,0.0,0.0,78,0.00,CLR,CLR,0.00,WeatherDisplay:10.37,2013-02-14 07:33:00,
2013-02-14 02:38:00,33.6,27.8,29.71,NNE,22,0.0,0.0,79,0.00,CLR,CLR,0.00,WeatherDisplay:10.37,2013-02-14 07:38:00,
2013-02-14 02:43:00,33.6,27.8,29.71,NNE,22,0.0,0.0,79,0.00,CLR,CLR,0.00,WeatherDisplay:10.37,2013-02-14 07:43:00,
2013-02-14 02:48:00,33.4,27.6,29.71,NNE,22,0.0,0.0,79,0.00,CLR,CLR,0.00,WeatherDisplay:10.37,2013-02-14 07:48:00,
2013-02-14 02:53:00,33.4,27.3,29.70,NNE,22,0.0,0.0,78,0.00,CLR,CLR,0.00,WeatherDisplay:10.37,2013-02-14 07:53:00,
2013-02-14 02:58:00,33.3,27.1,29.71,NNE,22,0.0,0.0,78,0.00,CLR,CLR,0.00,WeatherDisplay:10.37,2013-02-14 07:58:00,
2013-02-14 03:03:00,33.3,27.1,29.71,NNE,22,0.0,0.0,78,0.00,CLR,CLR,0.00,WeatherDisplay:10.37,2013-02-14 08:03:00,
2013-02-14 03:08:00,33.4,27.3,29.71,NNE,22,0.0,0.0,78,0.00,CLR,CLR,0.00,WeatherDisplay:10.37,2013-02-14 08:08:00,
2013-02-14 03:13:00,33.6,27.5,29.71,NNE,22,0.0,0.0,78,0.00,CLR,CLR,0.00,WeatherDisplay:10.37,2013-02-14 08:13:00,
2013-02-14 03:18:00,33.6,27.5,29.71,NNE,22,0.0,0.0,78,0.00,CLR,CLR,0.00,WeatherDisplay:10.37,2013-02-14 08:18:00,
2013-02-14 03:23:00,33.6,27.2,29.71,NNE,22,0.0,0.0,77,0.00,CLR,CLR,0.00,WeatherDisplay:10.37,2013-02-14 08:23:00,
2013-02-14 03:28:00,33.6,27.2,29.72,NNE,22,0.0,0.0,77,0.00,CLR,CLR,0.00,WeatherDisplay:10.37,2013-02-14 08:28:00,
2013-02-14 03:40:00,33.1,26.7,29.72,NNE,22,0.0,0.0,77,0.00,CLR,CLR,0.00,WeatherDisplay:10.37,2013-02-14 08:40:00,
2013-02-14 03:45:00,32.7,26.3,29.72,NNE,22,0.0,0.0,77,0.00,CLR,CLR,0.00,WeatherDisplay:10.37,2013-02-14 08:45:00,
2013-02-14 03:50:00,32.5,26.4,29.72,NNE,22,0.0,0.0,78,0.00,CLR,CLR,0.00,WeatherDisplay:10.37,2013-02-14 08:50:00,
2013-02-14 03:55:00,32.5,26.4,29.72,NNE,22,0.0,0.0,78,0.00,CLR,CLR,0.00,WeatherDisplay:10.37,2013-02-14 08:55:00,
2013-02-14 04:01:00,32.4,26.3,29.72,NNE,22,0.0,0.0,78,0.00,CLR,CLR,0.00,WeatherDisplay:10.37,2013-02-14 09:01:00,
2013-02-14 04:06:00,32.4,26.3,29.72,NNE,22,0.0,0.0,78,0.00,CLR,CLR,0.00,WeatherDisplay:10.37,2013-02-14 09:06:00,
2013-02-14 04:11:00,32.0,26.2,29.72,NE,45,0.0,0.0,79,0.00,CLR,CLR,0.00,WeatherDisplay:10.37,2013-02-14 09:11:00,
2013-02-14 04:16:00,31.8,26.0,29.72,NE,45,0.0,0.0,79,0.00,CLR,CLR,0.00,WeatherDisplay:10.37,2013-02-14 09:16:00,
2013-02-14 04:21:00,31.6,26.2,29.72,NNE,22,0.0,0.0,80,0.00,CLR,CLR,0.00,WeatherDisplay:10.37,2013-02-14 09:21:00,
2013-02-14 04:26:00,31.6,26.2,29.72,NNE,22,0.0,0.0,80,0.00,CLR,CLR,0.00,WeatherDisplay:10.37,2013-02-14 09:26:00,
2013-02-14 04:31:00,31.8,26.0,29.72,NNE,22,0.0,0.0,79,0.00,CLR,CLR,0.00,WeatherDisplay:10.37,2013-02-14 09:31:00,
2013-02-14 04:36:00,32.0,26.2,29.72,NNE,22,0.0,0.0,79,0.00,CLR,CLR,0.00,WeatherDisplay:10.37,2013-02-14 09:36:00,
2013-02-14 04:41:00,31.6,25.9,29.72,NNE,22,0.0,0.0,79,0.00,CLR,CLR,0.00,WeatherDisplay:10.37,2013-02-14 09:41:00,
2013-02-14 04:46:00,31.6,25.6,29.72,ENE,68,0.0,0.0,78,0.00,CLR,CLR,0.00,WeatherDisplay:10.37,2013-02-14 09:46:00,
2013-02-14 04:51:00,31.6,25.6,29.72,East,90,0.0,0.0,78,0.00,CLR,CLR,0.00,WeatherDisplay:10.37,2013-02-14 09:51:00,
2013-02-14 04:56:00,31.5,25.4,29.73,SE,135,0.0,0.0,78,0.00,CLR,CLR,0.00,WeatherDisplay:10.37,2013-02-14 09:56:00,
2013-02-14 05:01:00,31.3,25.2,29.73,SE,135,0.0,0.0,78,0.00,CLR,CLR,0.00,WeatherDisplay:10.37,2013-02-14 10:01:00,
2013-02-14 05:06:00,31.3,25.2,29.73,SE,135,0.0,0.0,78,0.00,CLR,CLR,0.00,WeatherDisplay:10.37,2013-02-14 10:06:00,
2013-02-14 05:11:00,31.3,25.2,29.73,NE,45,0.0,0.0,78,0.00,CLR,CLR,0.00,WeatherDisplay:10.37,2013-02-14 10:11:00,
2013-02-14 05:16:00,31.6,25.6,29.73,NE,45,0.0,0.0,78,0.00,CLR,CLR,0.00,WeatherDisplay:10.37,2013-02-14 10:16:00,
2013-02-14 05:21:00,31.6,25.6,29.73,NE,45,0.0,0.0,78,0.00,CLR,CLR,0.00,WeatherDisplay:10.37,2013-02-14 10:21:00,
2013-02-14 05:26:00,31.1,25.0,29.74,NE,45,0.0,0.0,78,0.00,CLR,CLR,0.00,WeatherDisplay:10.37,2013-02-14 10:26:00,
2013-02-14 05:31:00,30.9,24.9,29.74,NE,45,0.0,0.0,78,0.00,CLR,CLR,0.00,WeatherDisplay:10.37,2013-02-14 10:31:00,
2013-02-14 05:36:00,30.7,24.7,29.74,NE,45,0.0,0.0,78,0.00,CLR,CLR,0.00,WeatherDisplay:10.37,2013-02-14 10:36:00,
2013-02-14 05:41:00,30.9,24.9,29.74,ESE,112,0.0,0.0,78,0.00,CLR,CLR,0.00,WeatherDisplay:10.37,2013-02-14 10:41:00,
2013-02-14 05:46:00,30.4,24.6,29.74,SSE,158,0.0,0.0,79,0.00,CLR,CLR,0.00,WeatherDisplay:10.37,2013-02-14 10:46:00,
2013-02-14 05:51:00,30.0,24.3,29.75,SSE,158,0.0,0.0,79,0.00,CLR,CLR,0.00,WeatherDisplay:10.37,2013-02-14 10:51:00,
2013-02-14 05:56:00,30.4,24.6,29.75,SSE,158,0.0,0.0,79,0.00,CLR,CLR,0.00,WeatherDisplay:10.37,2013-02-14 10:56:00,
2013-02-14 06:01:00,30.2,24.5,29.75,SSE,158,0.0,0.0,79,0.00,CLR,CLR,0.00,WeatherDisplay:10.37,2013-02-14 11:01:00,
2013-02-14 06:06:00,30.2,24.5,29.75,SSE,158,0.0,0.0,79,0.00,CLR,CLR,0.00,WeatherDisplay:10.37,2013-02-14 11:06:00,
2013-02-14 06:11:00,29.1,24.0,29.75,SSE,158,0.0,0.0,81,0.00,CLR,CLR,0.00,WeatherDisplay:10.37,2013-02-14 11:11:00,
2013-02-14 06:16:00,29.5,24.4,29.76,SSE,158,0.0,0.0,81,0.00,CLR,CLR,0.00,WeatherDisplay:10.37,2013-02-14 11:16:00,
2013-02-14 06:21:00,29.3,24.2,29.76,SSE,158,0.0,0.0,81,0.00,CLR,CLR,0.00,WeatherDisplay:10.37,2013-02-14 11:21:00,
2013-02-14 06:26:00,28.8,24.0,29.76,SSE,158,0.0,0.0,82,0.00,CLR,CLR,0.00,WeatherDisplay:10.37,2013-02-14 11:26:00,
2013-02-14 06:31:00,28.4,23.6,29.76,SSE,158,0.0,0.0,82,0.00,CLR,CLR,0.00,WeatherDisplay:10.37,2013-02-14 11:31:00,
2013-02-14 06:36:00,28.2,23.7,29.77,NW,315,0.0,0.0,83,0.00,CLR,CLR,0.00,WeatherDisplay:10.37,2013-02-14 11:36:00,
2013-02-14 06:41:00,28.0,23.5,29.77,NW,315,0.0,0.0,83,0.00,CLR,CLR,0.00,WeatherDisplay:10.37,2013-02-14 11:41:00,
2013-02-14 06:46:00,28.0,23.8,29.77,NW,315,0.0,0.0,84,0.00,CLR,CLR,0.00,WeatherDisplay:10.37,2013-02-14 11:46:00,
2013-02-14 06:51:00,28.2,24.0,29.77,NW,315,0.0,0.0,84,0.00,CLR,CLR,0.00,WeatherDisplay:10.37,2013-02-14 11:51:00,
2013-02-14 06:56:00,28.6,24.1,29.77,WNW,292,0.0,0.0,83,0.00,CLR,CLR,0.00,WeatherDisplay:10.37,2013-02-14 11:56:00,
2013-02-14 07:01:00,28.6,24.1,29.77,WNW,292,0.0,0.0,83,0.00,CLR,CLR,0.00,WeatherDisplay:10.37,2013-02-14 12:01:00,
2013-02-14 07:06:00,28.6,24.1,29.78,WNW,292,0.0,0.0,83,0.00,CLR,CLR,0.00,WeatherDisplay:10.37,2013-02-14 12:06:00,
2013-02-14 07:12:00,28.6,23.8,29.78,WNW,292,0.0,0.0,82,0.00,CLR,CLR,0.00,WeatherDisplay:10.37,2013-02-14 12:12:00,
2013-02-14 07:17:00,28.8,24.2,29.78,WNW,292,0.0,0.0,83,0.00,CLR,CLR,0.00,WeatherDisplay:10.37,2013-02-14 12:17:00,
2013-02-14 07:22:00,28.9,24.1,29.78,WNW,292,0.0,0.0,82,0.00,CLR,CLR,0.00,WeatherDisplay:10.37,2013-02-14 12:22:00,
2013-02-14 07:27:00,28.8,24.2,29.78,South,180,0.0,0.0,83,0.00,CLR,CLR,0.00,WeatherDisplay:10.37,2013-02-14 12:27:00,
2013-02-14 07:32:00,28.4,23.6,29.78,South,180,0.0,0.0,82,0.00,CLR,CLR,0.00,WeatherDisplay:10.37,2013-02-14 12:32:00,
2013-02-14 07:37:00,28.0,23.3,29.79,South,180,0.0,0.0,82,0.00,CLR,CLR,0.00,WeatherDisplay:10.37,2013-02-14 12:37:00,
2013-02-14 07:42:00,28.0,23.5,29.79,South,180,0.0,0.0,83,0.00,CLR,CLR,0.00,WeatherDisplay:10.37,2013-02-14 12:42:00,
2013-02-14 07:48:00,28.2,23.7,29.80,South,180,0.0,0.0,83,0.00,CLR,CLR,0.00,WeatherDisplay:10.37,2013-02-14 12:48:00,
2013-02-14 07:53:00,28.6,24.1,29.80,WSW,248,0.0,0.0,83,0.00,CLR,CLR,0.00,WeatherDisplay:10.37,2013-02-14 12:53:00,
2013-02-14 07:58:00,28.6,24.1,29.81,WSW,248,0.0,0.0,83,0.00,CLR,CLR,0.00,WeatherDisplay:10.37,2013-02-14 12:58:00,
2013-02-14 08:03:00,28.8,24.2,29.81,WSW,248,0.0,0.0,83,0.00,CLR,CLR,0.00,WeatherDisplay:10.37,2013-02-14 13:03:00,
2013-02-14 08:08:00,28.9,24.4,29.81,NW,315,0.0,0.0,83,0.00,CLR,CLR,0.00,WeatherDisplay:10.37,2013-02-14 13:08:00,
2013-02-14 08:13:00,29.1,24.6,29.82,NW,315,0.0,0.0,83,0.00,CLR,CLR,0.00,WeatherDisplay:10.37,2013-02-14 13:13:00,
2013-02-14 08:18:00,29.8,25.3,29.82,West,270,0.0,0.0,83,0.00,CLR,CLR,0.00,WeatherDisplay:10.37,2013-02-14 13:18:00,
2013-02-14 08:23:00,30.0,25.5,29.83,West,270,0.0,0.0,83,0.00,CLR,CLR,0.00,WeatherDisplay:10.37,2013-02-14 13:23:00,
2013-02-14 08:29:00,30.2,25.7,29.83,West,270,0.0,0.0,83,0.00,CLR,CLR,0.00,WeatherDisplay:10.37,2013-02-14 13:29:00,
2013-02-14 08:34:00,30.9,26.1,29.84,WSW,248,0.0,0.0,82,0.00,CLR,CLR,0.00,WeatherDisplay:10.37,2013-02-14 13:34:00,
2013-02-14 08:39:00,31.6,26.8,29.84,WSW,248,0.0,0.0,82,0.00,CLR,CLR,0.00,WeatherDisplay:10.37,2013-02-14 13:39:00,
2013-02-14 08:44:00,31.6,26.5,29.84,NW,315,0.0,0.0,81,0.00,CLR,CLR,0.00,WeatherDisplay:10.37,2013-02-14 13:44:00,
2013-02-14 08:49:00,31.8,26.7,29.84,NW,315,0.0,0.0,81,0.00,CLR,CLR,0.00,WeatherDisplay:10.37,2013-02-14 13:49:00,
2013-02-14 08:54:00,32.0,26.8,29.84,NW,315,0.0,0.0,81,0.00,CLR,CLR,0.00,WeatherDisplay:10.37,2013-02-14 13:54:00,
2013-02-14 08:59:00,32.5,27.1,29.84,NW,315,0.0,0.0,80,0.00,CLR,CLR,0.00,WeatherDisplay:10.37,2013-02-14 13:59:00,
2013-02-14 09:04:00,32.9,27.1,29.84,NNW,338,0.0,0.0,79,0.00,CLR,CLR,0.00,WeatherDisplay:10.37,2013-02-14 14:04:00,
2013-02-14 09:09:00,33.4,27.6,29.84,WNW,292,0.0,0.0,79,0.00,CLR,CLR,0.00,WeatherDisplay:10.37,2013-02-14 14:09:00,
2013-02-14 09:14:00,34.0,28.5,29.84,WNW,292,0.0,0.0,80,0.00,CLR,CLR,0.00,WeatherDisplay:10.37,2013-02-14 14:14:00,
2013-02-14 09:19:00,34.5,28.7,29.84,ENE,68,0.0,0.0,79,0.00,CLR,CLR,0.00,WeatherDisplay:10.37,2013-02-14 14:19:00,
2013-02-14 09:25:00,34.7,28.5,29.84,South,180,0.6,1.2,78,0.00,CLR,CLR,0.00,WeatherDisplay:10.37,2013-02-14 14:25:00,
2013-02-14 09:30:00,35.4,29.2,29.84,SW,225,2.2,2.3,78,0.00,CLR,CLR,0.00,WeatherDisplay:10.37,2013-02-14 14:30:00,
2013-02-14 09:35:00,35.8,29.6,29.84,SW,225,2.2,2.3,78,0.00,CLR,CLR,0.00,WeatherDisplay:10.37,2013-02-14 14:35:00,
2013-02-14 09:40:00,36.1,29.3,29.85,North,0,0.0,0.0,76,0.00,CLR,CLR,0.00,WeatherDisplay:10.37,2013-02-14 14:40:00,
2013-02-14 09:45:00,36.5,29.0,29.84,North,0,0.0,0.0,74,0.00,CLR,CLR,0.00,WeatherDisplay:10.37,2013-02-14 14:45:00,
2013-02-14 09:50:00,37.0,29.5,29.85,NNW,338,0.0,0.0,74,0.00,CLR,CLR,0.00,WeatherDisplay:10.37,2013-02-14 14:50:00,
2013-02-14 09:55:00,37.2,30.0,29.84,West,270,0.0,0.0,75,0.00,CLR,CLR,0.00,WeatherDisplay:10.37,2013-02-14 14:55:00,
2013-02-14 10:00:00,37.6,30.4,29.84,NW,315,0.0,0.0,75,0.00,CLR,CLR,0.00,WeatherDisplay:10.37,2013-02-14 15:00:00,
2013-02-14 10:06:00,37.8,29.5,29.84,SW,225,0.0,0.0,72,0.00,CLR,CLR,0.00,WeatherDisplay:10.37,2013-02-14 15:06:00,
2013-02-14 10:11:00,38.1,29.5,29.84,WSW,248,0.0,0.0,71,0.00,CLR,CLR,0.00,WeatherDisplay:10.37,2013-02-14 15:11:00,
2013-02-14 10:16:00,38.5,29.9,29.84,NNE,22,0.0,0.0,71,0.00,CLR,CLR,0.00,WeatherDisplay:10.37,2013-02-14 15:16:00,
2013-02-14 10:21:00,38.8,29.9,29.83,NNE,22,0.0,0.0,70,0.00,CLR,CLR,0.00,WeatherDisplay:10.37,2013-02-14 15:21:00,
2013-02-14 10:26:00,39.4,30.4,29.83,West,270,0.0,0.0,70,0.00,CLR,CLR,0.00,WeatherDisplay:10.37,2013-02-14 15:26:00,
2013-02-14 10:31:00,39.6,29.5,29.84,NNW,338,0.0,0.0,67,0.00,CLR,CLR,0.00,WeatherDisplay:10.37,2013-02-14 15:31:00,
2013-02-14 10:36:00,39.7,29.7,29.83,West,270,0.0,0.0,67,0.00,CLR,CLR,0.00,WeatherDisplay:10.37,2013-02-14 15:36:00,
2013-02-14 10:41:00,39.9,29.5,29.83,SSW,202,0.0,0.0,66,0.00,CLR,CLR,0.00,WeatherDisplay:10.37,2013-02-14 15:41:00,
2013-02-14 10:46:00,40.3,30.2,29.84,NW,315,0.0,0.0,67,0.00,CLR,CLR,0.00,WeatherDisplay:10.37,2013-02-14 15:46:00,
2013-02-14 10:51:00,40.6,30.2,29.84,SW,225,0.0,0.0,66,0.00,CLR,CLR,0.00,WeatherDisplay:10.37,2013-02-14 15:51:00,
2013-02-14 10:56:00,40.6,29.8,29.84,NNE,22,0.0,0.0,65,0.00,CLR,CLR,0.00,WeatherDisplay:10.37,2013-02-14 15:56:00,
2013-02-14 11:01:00,40.8,29.6,29.84,North,0,0.0,0.0,64,0.00,CLR,CLR,0.00,WeatherDisplay:10.37,2013-02-14 16:01:00,
2013-02-14 11:06:00,41.2,30.3,29.83,West,270,0.0,0.0,65,0.00,CLR,CLR,0.00,WeatherDisplay:10.37,2013-02-14 16:06:00,
2013-02-14 11:11:00,41.5,30.3,29.83,SW,225,1.5,1.5,64,0.00,CLR,CLR,0.00,WeatherDisplay:10.37,2013-02-14 16:11:00,
2013-02-14 11:16:00,41.7,30.0,29.82,North,0,0.0,0.0,63,0.00,CLR,CLR,0.00,WeatherDisplay:10.37,2013-02-14 16:16:00,
2013-02-14 11:21:00,41.7,30.0,29.82,West,270,0.0,2.3,63,0.00,CLR,CLR,0.00,WeatherDisplay:10.37,2013-02-14 16:21:00,
2013-02-14 11:26:00,42.4,30.7,29.82,WSW,248,0.0,0.0,63,0.00,CLR,CLR,0.00,WeatherDisplay:10.37,2013-02-14 16:26:00,
2013-02-14 11:31:00,42.4,30.3,29.82,WNW,292,2.0,2.3,62,0.00,CLR,CLR,0.00,WeatherDisplay:10.37,2013-02-14 16:31:00,
2013-02-14 11:36:00,42.6,30.5,29.82,SW,225,0.0,0.0,62,0.00,CLR,CLR,0.00,WeatherDisplay:10.37,2013-02-14 16:36:00,
2013-02-14 11:41:00,43.0,30.4,29.82,WNW,292,0.0,0.0,61,0.00,CLR,CLR,0.00,WeatherDisplay:10.37,2013-02-14 16:41:00,
2013-02-14 11:46:00,43.0,30.8,29.83,SW,225,0.0,0.0,62,0.00,CLR,CLR,0.00,WeatherDisplay:10.37,2013-02-14 16:46:00,
2013-02-14 11:51:00,43.5,31.0,29.82,WSW,248,0.0,0.0,61,0.00,CLR,CLR,0.00,WeatherDisplay:10.37,2013-02-14 16:51:00,
2013-02-14 11:57:00,43.9,31.3,29.82,WSW,248,0.0,0.0,61,0.00,CLR,CLR,0.00,WeatherDisplay:10.37,2013-02-14 16:57:00,
2013-02-14 12:02:00,44.4,30.1,29.82,SW,225,0.0,0.0,57,0.00,CLR,CLR,0.00,WeatherDisplay:10.37,2013-02-14 17:02:00,
2013-02-14 12:07:00,44.4,31.0,29.83,West,270,0.0,0.0,59,0.00,CLR,CLR,0.00,WeatherDisplay:10.37,2013-02-14 17:07:00,
2013-02-14 12:12:00,44.8,30.9,29.82,WSW,248,4.0,4.0,58,0.00,CLR,CLR,0.00,WeatherDisplay:10.37,2013-02-14 17:12:00,
2013-02-14 12:17:00,45.0,29.3,29.81,WSW,248,0.0,0.0,54,0.00,CLR,CLR,0.00,WeatherDisplay:10.37,2013-02-14 17:17:00,
2013-02-14 12:22:00,45.0,31.1,29.81,West,270,2.0,2.3,58,0.00,CLR,CLR,0.00,WeatherDisplay:10.37,2013-02-14 17:22:00,
2013-02-14 12:28:00,45.3,31.0,29.81,SSW,202,6.3,6.3,57,0.00,CLR,CLR,0.00,WeatherDisplay:10.37,2013-02-14 17:28:00,
2013-02-14 12:33:00,45.3,30.5,29.81,SW,225,0.0,0.0,56,0.00,CLR,CLR,0.00,WeatherDisplay:10.37,2013-02-14 17:33:00,
2013-02-14 12:38:00,46.0,32.1,29.81,WSW,248,4.9,4.9,58,0.00,CLR,CLR,0.00,WeatherDisplay:10.37,2013-02-14 17:38:00,
2013-02-14 12:43:00,46.2,31.4,29.81,WSW,248,0.0,0.0,56,0.00,CLR,CLR,0.00,WeatherDisplay:10.37,2013-02-14 17:43:00,
2013-02-14 12:48:00,46.6,31.3,29.80,SSW,202,0.0,0.0,55,0.00,CLR,CLR,0.00,WeatherDisplay:10.37,2013-02-14 17:48:00,
2013-02-14 12:53:00,47.1,32.7,29.81,WSW,248,0.0,0.0,57,0.00,CLR,CLR,0.00,WeatherDisplay:10.37,2013-02-14 17:53:00,
2013-02-14 12:58:00,47.1,31.8,29.80,NE,45,0.0,0.0,55,0.00,CLR,CLR,0.00,WeatherDisplay:10.37,2013-02-14 17:58:00,
2013-02-14 13:04:00,47.3,32.4,29.80,WSW,248,0.0,0.0,56,0.00,CLR,CLR,0.00,WeatherDisplay:10.37,2013-02-14 18:04:00,
2013-02-14 13:09:00,48.0,31.2,29.80,SSW,202,8.3,8.3,52,0.00,CLR,CLR,0.00,WeatherDisplay:10.37,2013-02-14 18:09:00,
2013-02-14 13:14:00,48.6,32.7,29.80,West,270,0.0,0.0,54,0.00,CLR,CLR,0.00,WeatherDisplay:10.37,2013-02-14 18:14:00,
2013-02-14 13:19:00,48.6,31.2,29.79,South,180,0.0,0.0,51,0.00,CLR,CLR,0.00,WeatherDisplay:10.37,2013-02-14 18:19:00,
2013-02-14 13:24:00,48.7,30.4,29.79,WSW,248,0.0,1.2,49,0.00,CLR,CLR,0.00,WeatherDisplay:10.37,2013-02-14 18:24:00,
2013-02-14 13:29:00,48.9,30.6,29.79,North,0,0.0,0.0,49,0.00,CLR,CLR,0.00,WeatherDisplay:10.37,2013-02-14 18:29:00,
2013-02-14 13:34:00,49.1,31.2,29.79,WNW,292,0.0,0.0,50,0.00,CLR,CLR,0.00,WeatherDisplay:10.37,2013-02-14 18:34:00,
2013-02-14 13:39:00,49.1,31.2,29.79,WSW,248,4.9,4.9,50,0.00,CLR,CLR,0.00,WeatherDisplay:10.37,2013-02-14 18:39:00,
2013-02-14 13:45:00,49.6,32.7,29.79,WSW,248,6.1,6.1,52,0.00,CLR,CLR,0.00,WeatherDisplay:10.37,2013-02-14 18:45:00,
2013-02-14 13:50:00,50.2,33.7,29.78,NE,45,0.0,0.0,53,0.00,CLR,CLR,0.00,WeatherDisplay:10.37,2013-02-14 18:50:00,
2013-02-14 13:55:00,51.1,34.5,29.78,NNW,338,0.0,0.0,53,0.00,CLR,CLR,0.00,WeatherDisplay:10.37,2013-02-14 18:55:00,
2013-02-14 14:00:00,51.3,34.2,29.77,NW,315,0.0,0.0,52,0.00,CLR,CLR,0.00,WeatherDisplay:10.37,2013-02-14 19:00:00,
2013-02-14 14:05:00,51.1,32.1,29.77,East,90,0.0,0.0,48,0.00,CLR,CLR,0.00,WeatherDisplay:10.37,2013-02-14 19:05:00,
2013-02-14 14:10:00,51.1,32.6,29.76,WSW,248,0.0,0.0,49,0.00,CLR,CLR,0.00,WeatherDisplay:10.37,2013-02-14 19:10:00,
2013-02-14 14:15:00,51.4,33.9,29.76,South,180,3.3,3.5,51,0.00,CLR,CLR,0.00,WeatherDisplay:10.37,2013-02-14 19:15:00,
2013-02-14 14:20:00,51.4,34.4,29.76,SSE,158,0.0,0.0,52,0.00,CLR,CLR,0.00,WeatherDisplay:10.37,2013-02-14 19:20:00,
2013-02-14 14:25:00,51.8,33.7,29.76,SSE,158,0.0,0.0,50,0.00,CLR,CLR,0.00,WeatherDisplay:10.37,2013-02-14 19:25:00,
2013-02-14 14:30:00,52.2,33.0,29.76,South,180,0.0,0.0,48,0.00,CLR,CLR,0.00,WeatherDisplay:10.37,2013-02-14 19:30:00,
2013-02-14 14:35:00,52.2,32.5,29.75,West,270,3.5,3.5,47,0.00,CLR,CLR,0.00,WeatherDisplay:10.37,2013-02-14 19:35:00,
2013-02-14 14:40:00,52.0,32.4,29.75,WNW,292,4.2,4.6,47,0.00,CLR,CLR,0.00,WeatherDisplay:10.37,2013-02-14 19:40:00,
2013-02-14 14:46:00,52.0,31.8,29.76,SW,225,0.0,0.0,46,0.00,CLR,CLR,0.00,WeatherDisplay:10.37,2013-02-14 19:46:00,
2013-02-14 14:51:00,52.3,30.5,29.76,SSW,202,1.1,1.2,43,0.00,CLR,CLR,0.00,WeatherDisplay:10.37,2013-02-14 19:51:00,
2013-02-14 14:56:00,52.7,30.8,29.76,West,270,4.2,4.6,43,0.00,CLR,CLR,0.00,WeatherDisplay:10.37,2013-02-14 19:56:00,
2013-02-14 15:01:00,53.1,30.0,29.76,SSW,202,8.6,8.6,41,0.00,CLR,CLR,0.00,WeatherDisplay:10.37,2013-02-14 20:01:00,
2013-02-14 15:06:00,52.9,30.4,29.76,WSW,248,8.8,9.2,42,0.00,CLR,CLR,0.00,WeatherDisplay:10.37,2013-02-14 20:06:00,
2013-02-14 15:11:00,53.4,32.6,29.76,West,270,0.0,0.0,45,0.00,CLR,CLR,0.00,WeatherDisplay:10.37,2013-02-14 20:11:00,
2013-02-14 15:16:00,54.3,30.5,29.76,SSW,202,4.2,5.8,40,0.00,CLR,CLR,0.00,WeatherDisplay:10.37,2013-02-14 20:16:00,
2013-02-14 15:21:00,54.5,33.0,29.76,WSW,248,5.8,6.9,44,0.00,CLR,CLR,0.00,WeatherDisplay:10.37,2013-02-14 20:21:00,
2013-02-14 15:26:00,54.7,31.4,29.76,SW,225,6.5,6.9,41,0.00,CLR,CLR,0.00,WeatherDisplay:10.37,2013-02-14 20:26:00,
2013-02-14 15:31:00,55.0,31.7,29.76,SW,225,6.3,6.3,41,0.00,CLR,CLR,0.00,WeatherDisplay:10.37,2013-02-14 20:31:00,
2013-02-14 15:36:00,55.2,32.5,29.76,SW,225,7.0,7.0,42,0.00,CLR,CLR,0.00,WeatherDisplay:10.37,2013-02-14 20:36:00,
2013-02-14 15:42:00,54.7,32.0,29.76,SW,225,3.8,3.8,42,0.00,CLR,CLR,0.00,WeatherDisplay:10.37,2013-02-14 20:42:00,
2013-02-14 15:47:00,55.6,31.0,29.76,South,180,5.2,5.8,39,0.00,CLR,CLR,0.00,WeatherDisplay:10.37,2013-02-14 20:47:00,
2013-02-14 15:52:00,55.2,32.5,29.76,SSE,158,0.4,0.0,42,0.00,CLR,CLR,0.00,WeatherDisplay:10.37,2013-02-14 20:52:00,
2013-02-14 15:57:00,55.0,30.5,29.76,South,180,2.0,2.3,39,0.00,CLR,CLR,0.00,WeatherDisplay:10.37,2013-02-14 20:57:00,
2013-02-14 16:02:00,55.0,32.3,29.76,SW,225,8.8,9.2,42,0.00,CLR,CLR,0.00,WeatherDisplay:10.37,2013-02-14 21:02:00,
2013-02-14 16:07:00,55.6,31.0,29.76,SW,225,4.4,4.6,39,0.00,CLR,CLR,0.00,WeatherDisplay:10.37,2013-02-14 21:07:00,
2013-02-14 16:12:00,55.4,32.1,29.77,SW,225,9.0,9.2,41,0.00,CLR,CLR,0.00,WeatherDisplay:10.37,2013-02-14 21:12:00,
2013-02-14 16:17:00,54.7,32.6,29.76,WSW,248,4.4,4.6,43,0.00,CLR,CLR,0.00,WeatherDisplay:10.37,2013-02-14 21:17:00,
2013-02-14 16:22:00,55.4,33.3,29.76,SSW,202,2.2,2.3,43,0.00,CLR,CLR,0.00,WeatherDisplay:10.37,2013-02-14 21:22:00,
2013-02-14 16:27:00,55.8,33.0,29.76,SSW,202,5.3,5.8,42,0.00,CLR,CLR,0.00,WeatherDisplay:10.37,2013-02-14 21:27:00,
2013-02-14 16:32:00,55.6,33.4,29.76,SW,225,4.2,4.6,43,0.00,CLR,CLR,0.00,WeatherDisplay:10.37,2013-02-14 21:32:00,
2013-02-14 16:37:00,54.7,33.2,29.76,WSW,248,0.0,0.0,44,0.00,CLR,CLR,0.00,WeatherDisplay:10.37,2013-02-14 21:37:00,
2013-02-14 16:42:00,54.3,33.4,29.76,WSW,248,2.6,2.6,45,0.00,CLR,CLR,0.00,WeatherDisplay:10.37,2013-02-14 21:42:00,
2013-02-14 16:47:00,53.8,31.8,29.76,SW,225,3.8,3.8,43,0.00,CLR,CLR,0.00,WeatherDisplay:10.37,2013-02-14 21:47:00,
2013-02-14 16:53:00,53.2,31.9,29.76,South,180,0.0,0.0,44,0.00,CLR,CLR,0.00,WeatherDisplay:10.37,2013-02-14 21:53:00,
2013-02-14 16:58:00,53.8,32.9,29.77,WSW,248,4.0,4.0,45,0.00,CLR,CLR,0.00,WeatherDisplay:10.37,2013-02-14 21:58:00,
2013-02-14 17:03:00,55.0,33.5,29.76,WSW,248,0.0,0.0,44,0.00,CLR,CLR,0.00,WeatherDisplay:10.37,2013-02-14 22:03:00,
2013-02-14 17:08:00,55.8,33.0,29.76,South,180,3.8,5.8,42,0.00,CLR,CLR,0.00,WeatherDisplay:10.37,2013-02-14 22:08:00,
2013-02-14 17:13:00,54.7,32.6,29.76,SSW,202,2.9,3.5,43,0.00,CLR,CLR,0.00,WeatherDisplay:10.37,2013-02-14 22:13:00,
2013-02-14 17:18:00,54.3,32.3,29.76,SE,135,0.0,0.0,43,0.00,CLR,CLR,0.00,WeatherDisplay:10.37,2013-02-14 22:18:00,
2013-02-14 17:24:00,53.6,32.8,29.76,WSW,248,3.8,3.8,45,0.00,CLR,CLR,0.00,WeatherDisplay:10.37,2013-02-14 22:24:00,
2013-02-14 17:29:00,53.4,32.0,29.76,SSW,202,1.7,1.7,44,0.00,CLR,CLR,0.00,WeatherDisplay:10.37,2013-02-14 22:29:00,
2013-02-14 17:34:00,52.9,32.1,29.76,SSW,202,0.0,0.0,45,0.00,CLR,CLR,0.00,WeatherDisplay:10.37,2013-02-14 22:34:00,
2013-02-14 17:39:00,52.7,31.9,29.77,South,180,0.0,0.0,45,0.00,CLR,CLR,0.00,WeatherDisplay:10.37,2013-02-14 22:39:00,
2013-02-14 17:44:00,52.3,32.2,29.77,SW,225,0.0,0.0,46,0.00,CLR,CLR,0.00,WeatherDisplay:10.37,2013-02-14 22:44:00,
2013-02-14 17:49:00,51.1,32.1,29.77,SW,225,0.0,0.0,48,0.00,CLR,CLR,0.00,WeatherDisplay:10.37,2013-02-14 22:49:00,
2013-02-14 17:54:00,50.4,31.9,29.77,SE,135,0.0,0.0,49,0.00,CLR,CLR,0.00,WeatherDisplay:10.37,2013-02-14 22:54:00,
2013-02-14 17:59:00,49.6,32.2,29.78,SW,225,0.2,0.2,51,0.00,CLR,CLR,0.00,WeatherDisplay:10.37,2013-02-14 22:59:00,
2013-02-14 18:04:00,48.9,31.6,29.78,South,180,0.0,0.0,51,0.00,CLR,CLR,0.00,WeatherDisplay:10.37,2013-02-14 23:04:00,
2013-02-14 18:09:00,48.6,31.7,29.78,SSW,202,0.0,0.0,52,0.00,CLR,CLR,0.00,WeatherDisplay:10.37,2013-02-14 23:09:00,
2013-02-14 18:14:00,48.0,31.7,29.77,SW,225,0.0,0.0,53,0.00,CLR,CLR,0.00,WeatherDisplay:10.37,2013-02-14 23:14:00,
2013-02-14 18:19:00,47.5,31.2,29.77,SW,225,0.0,0.0,53,0.00,CLR,CLR,0.00,WeatherDisplay:10.37,2013-02-14 23:19:00,
2013-02-14 18:24:00,47.1,31.3,29.78,SSW,202,0.0,0.0,54,0.00,CLR,CLR,0.00,WeatherDisplay:10.37,2013-02-14 23:24:00,
2013-02-14 18:29:00,46.8,31.4,29.78,SSW,202,0.0,0.0,55,0.00,CLR,CLR,0.00,WeatherDisplay:10.37,2013-02-14 23:29:00,
2013-02-14 18:35:00,46.4,31.5,29.78,SW,225,0.0,0.0,56,0.00,CLR,CLR,0.00,WeatherDisplay:10.37,2013-02-14 23:35:00,
2013-02-14 18:40:00,46.0,31.2,29.79,SW,225,0.0,0.0,56,0.00,CLR,CLR,0.00,WeatherDisplay:10.37,2013-02-14 23:40:00,
2013-02-14 18:45:00,45.7,30.9,29.79,SW,225,0.0,0.0,56,0.00,CLR,CLR,0.00,WeatherDisplay:10.37,2013-02-14 23:45:00,
2013-02-14 18:50:00,45.3,31.0,29.79,SW,225,0.0,0.0,57,0.00,CLR,CLR,0.00,WeatherDisplay:10.37,2013-02-14 23:50:00,
2013-02-14 18:55:00,45.0,30.6,29.79,SW,225,0.0,0.0,57,0.00,CLR,CLR,0.00,WeatherDisplay:10.37,2013-02-14 23:55:00,
2013-02-14 19:00:00,44.8,30.9,29.79,SW,225,0.0,0.0,58,0.00,CLR,CLR,0.00,WeatherDisplay:10.37,2013-02-15 00:00:00,
2013-02-14 19:05:00,44.4,30.6,29.79,SW,225,0.0,0.0,58,0.00,CLR,CLR,0.00,WeatherDisplay:10.37,2013-02-15 00:05:00,
2013-02-14 19:10:00,43.9,30.5,29.79,SW,225,0.0,0.0,59,0.00,CLR,CLR,0.00,WeatherDisplay:10.37,2013-02-15 00:10:00,
2013-02-14 19:15:00,43.3,30.4,29.79,SW,225,0.0,0.0,60,0.00,CLR,CLR,0.00,WeatherDisplay:10.37,2013-02-15 00:15:00,
2013-02-14 19:20:00,43.3,30.4,29.79,SW,225,0.0,0.0,60,0.00,CLR,CLR,0.00,WeatherDisplay:10.37,2013-02-15 00:20:00,
2013-02-14 19:25:00,43.0,30.4,29.79,SW,225,0.0,0.0,61,0.00,CLR,CLR,0.00,WeatherDisplay:10.37,2013-02-15 00:25:00,
2013-02-14 19:30:00,43.3,30.8,29.79,SW,225,0.0,0.0,61,0.00,CLR,CLR,0.00,WeatherDisplay:10.37,2013-02-15 00:30:00,
2013-02-14 19:35:00,43.0,30.0,29.79,SW,225,0.0,0.0,60,0.00,CLR,CLR,0.00,WeatherDisplay:10.37,2013-02-15 00:35:00,
2013-02-14 19:41:00,42.8,30.3,29.79,WSW,248,0.0,0.0,61,0.00,CLR,CLR,0.00,WeatherDisplay:10.37,2013-02-15 00:41:00,
2013-02-14 19:46:00,42.6,30.1,29.79,WSW,248,0.0,0.0,61,0.00,CLR,CLR,0.00,WeatherDisplay:10.37,2013-02-15 00:46:00,
2013-02-14 19:51:00,42.1,30.0,29.79,West,270,0.0,0.0,62,0.00,CLR,CLR,0.00,WeatherDisplay:10.37,2013-02-15 00:51:00,
2013-02-14 19:56:00,41.7,29.6,29.79,West,270,0.0,0.0,62,0.00,CLR,CLR,0.00,WeatherDisplay:10.37,2013-02-15 00:56:00,
2013-02-14 20:01:00,41.5,29.9,29.80,NW,315,0.0,0.0,63,0.00,CLR,CLR,0.00,WeatherDisplay:10.37,2013-02-15 01:01:00,
2013-02-14 20:06:00,41.5,30.3,29.80,West,270,0.0,0.0,64,0.00,CLR,CLR,0.00,WeatherDisplay:10.37,2013-02-15 01:06:00,
2013-02-14 20:11:00,41.7,30.4,29.80,West,270,0.0,0.0,64,0.00,CLR,CLR,0.00,WeatherDisplay:10.37,2013-02-15 01:11:00,
2013-02-14 20:16:00,42.1,30.4,29.80,NNW,338,0.0,0.0,63,0.00,CLR,CLR,0.00,WeatherDisplay:10.37,2013-02-15 01:16:00,
2013-02-14 20:21:00,41.9,30.2,29.80,West,270,0.0,0.0,63,0.00,CLR,CLR,0.00,WeatherDisplay:10.37,2013-02-15 01:21:00,
2013-02-14 20:27:00,41.7,30.0,29.80,WSW,248,0.0,0.0,63,0.00,CLR,CLR,0.00,WeatherDisplay:10.37,2013-02-15 01:27:00,
2013-02-14 20:32:00,41.7,30.0,29.81,WSW,248,0.0,0.0,63,0.00,CLR,CLR,0.00,WeatherDisplay:10.37,2013-02-15 01:32:00,
2013-02-14 20:37:00,41.5,29.9,29.81,WSW,248,0.0,0.0,63,0.00,CLR,CLR,0.00,WeatherDisplay:10.37,2013-02-15 01:37:00,
2013-02-14 20:42:00,41.5,29.9,29.81,WSW,248,0.0,0.0,63,0.00,CLR,CLR,0.00,WeatherDisplay:10.37,2013-02-15 01:42:00,
2013-02-14 20:47:00,40.6,29.8,29.81,South,180,0.0,0.0,65,0.00,CLR,CLR,0.00,WeatherDisplay:10.37,2013-02-15 01:47:00,
2013-02-14 20:52:00,40.3,29.4,29.80,South,180,0.0,0.0,65,0.00,CLR,CLR,0.00,WeatherDisplay:10.37,2013-02-15 01:52:00,
2013-02-14 20:57:00,39.9,29.5,29.80,NE,45,0.0,0.0,66,0.00,CLR,CLR,0.00,WeatherDisplay:10.37,2013-02-15 01:57:00,
2013-02-14 21:02:00,39.7,29.3,29.81,West,270,0.0,0.0,66,0.00,CLR,CLR,0.00,WeatherDisplay:10.37,2013-02-15 02:02:00,
2013-02-14 21:07:00,39.7,29.7,29.81,SSW,202,0.0,0.0,67,0.00,CLR,CLR,0.00,WeatherDisplay:10.37,2013-02-15 02:07:00,
2013-02-14 21:12:00,39.7,29.7,29.81,SSW,202,0.0,0.0,67,0.00,CLR,CLR,0.00,WeatherDisplay:10.37,2013-02-15 02:12:00,
2013-02-14 21:17:00,40.1,30.0,29.82,South,180,0.0,0.0,67,0.00,CLR,CLR,0.00,WeatherDisplay:10.37,2013-02-15 02:17:00,
2013-02-14 21:22:00,40.3,30.2,29.82,South,180,0.0,0.0,67,0.00,CLR,CLR,0.00,WeatherDisplay:10.37,2013-02-15 02:22:00,
2013-02-14 21:28:00,40.6,30.2,29.82,SW,225,0.0,0.0,66,0.00,CLR,CLR,0.00,WeatherDisplay:10.37,2013-02-15 02:28:00,
2013-02-14 21:33:00,40.6,30.2,29.83,SW,225,0.0,0.0,66,0.00,CLR,CLR,0.00,WeatherDisplay:10.37,2013-02-15 02:33:00,
2013-02-14 21:38:00,40.5,30.0,29.82,SW,225,5.2,5.8,66,0.00,CLR,CLR,0.00,WeatherDisplay:10.37,2013-02-15 02:38:00,
2013-02-14 21:43:00,40.6,30.5,29.82,SSE,158,0.0,0.0,67,0.00,CLR,CLR,0.00,WeatherDisplay:10.37,2013-02-15 02:43:00,
2013-02-14 21:48:00,40.1,30.0,29.83,WSW,248,0.0,0.0,67,0.00,CLR,CLR,0.00,WeatherDisplay:10.37,2013-02-15 02:48:00,
2013-02-14 21:53:00,40.1,30.0,29.83,WSW,248,3.3,3.5,67,0.00,CLR,CLR,0.00,WeatherDisplay:10.37,2013-02-15 02:53:00,
2013-02-14 21:58:00,39.7,29.3,29.83,SSW,202,0.0,0.0,66,0.00,CLR,CLR,0.00,WeatherDisplay:10.37,2013-02-15 02:58:00,
2013-02-14 22:03:00,39.0,29.0,29.83,West,270,0.0,0.0,67,0.00,CLR,CLR,0.00,WeatherDisplay:10.37,2013-02-15 03:03:00,
2013-02-14 22:08:00,37.9,28.7,29.83,West,270,0.0,0.0,69,0.00,CLR,CLR,0.00,WeatherDisplay:10.37,2013-02-15 03:08:00,
2013-02-14 22:13:00,37.6,28.3,29.84,West,270,0.0,0.0,69,0.00,CLR,CLR,0.00,WeatherDisplay:10.37,2013-02-15 03:13:00,
2013-02-14 22:19:00,37.0,28.2,29.84,WSW,248,0.0,0.0,70,0.00,CLR,CLR,0.00,WeatherDisplay:10.37,2013-02-15 03:19:00,
2013-02-14 22:24:00,37.0,28.5,29.84,NNW,338,0.0,0.0,71,0.00,CLR,CLR,0.00,WeatherDisplay:10.37,2013-02-15 03:24:00,
2013-02-14 22:29:00,37.2,28.7,29.83,SSE,158,0.0,0.0,71,0.00,CLR,CLR,0.00,WeatherDisplay:10.37,2013-02-15 03:29:00,
2013-02-14 22:34:00,37.2,28.7,29.83,SSW,202,0.0,0.0,71,0.00,CLR,CLR,0.00,WeatherDisplay:10.37,2013-02-15 03:34:00,
2013-02-14 22:39:00,37.2,28.7,29.83,SSW,202,0.0,0.0,71,0.00,CLR,CLR,0.00,WeatherDisplay:10.37,2013-02-15 03:39:00,
2013-02-14 22:45:00,37.4,28.9,29.83,NW,315,0.0,0.0,71,0.00,CLR,CLR,0.00,WeatherDisplay:10.37,2013-02-15 03:45:00,
2013-02-14 22:50:00,37.2,28.7,29.83,NW,315,0.0,0.0,71,0.00,CLR,CLR,0.00,WeatherDisplay:10.37,2013-02-15 03:50:00,
2013-02-14 22:55:00,37.2,28.7,29.83,SSE,158,0.0,0.0,71,0.00,CLR,CLR,0.00,WeatherDisplay:10.37,2013-02-15 03:55:00,
2013-02-14 23:00:00,37.2,28.7,29.83,SSE,158,0.0,0.0,71,0.00,CLR,CLR,0.00,WeatherDisplay:10.37,2013-02-15 04:00:00,
2013-02-14 23:05:00,37.2,28.7,29.83,SSE,158,0.0,0.0,71,0.00,CLR,CLR,0.00,WeatherDisplay:10.37,2013-02-15 04:05:00,
2013-02-14 23:10:00,37.0,28.8,29.83,SSE,158,0.0,0.0,72,0.00,CLR,CLR,0.00,WeatherDisplay:10.37,2013-02-15 04:10:00,
2013-02-14 23:15:00,36.7,28.5,29.83,ENE,68,0.0,0.0,72,0.00,CLR,CLR,0.00,WeatherDisplay:10.37,2013-02-15 04:15:00,
2013-02-14 23:21:00,36.3,28.5,29.83,ENE,68,0.0,0.0,73,0.00,CLR,CLR,0.00,WeatherDisplay:10.37,2013-02-15 04:21:00,
2013-02-14 23:26:00,36.0,28.5,29.83,ENE,68,0.0,0.0,74,0.00,CLR,CLR,0.00,WeatherDisplay:10.37,2013-02-15 04:26:00,
2013-02-14 23:31:00,35.8,28.3,29.83,ENE,68,0.0,0.0,74,0.00,CLR,CLR,0.00,WeatherDisplay:10.37,2013-02-15 04:31:00,
2013-02-14 23:36:00,35.6,28.1,29.83,NE,45,0.0,0.0,74,0.00,CLR,CLR,0.00,WeatherDisplay:10.37,2013-02-15 04:36:00,
2013-02-14 23:41:00,35.4,28.0,29.83,NW,315,0.0,0.0,74,0.00,CLR,CLR,0.00,WeatherDisplay:10.37,2013-02-15 04:41:00,
2013-02-14 23:46:00,35.6,28.1,29.83,NW,315,0.0,0.0,74,0.00,CLR,CLR,0.00,WeatherDisplay:10.37,2013-02-15 04:46:00,
2013-02-14 23:51:00,36.1,28.6,29.83,NW,315,0.0,0.0,74,0.00,CLR,CLR,0.00,WeatherDisplay:10.37,2013-02-15 04:51:00,
2013-02-14 23:56:00,36.3,28.5,29.83,WNW,292,0.0,0.0,73,0.00,CLR,CLR,0.00,WeatherDisplay:10.37,2013-02-15 04:56:00,